• Join FlightAware (Why Join?)
  • Login
  • US Flag 
04:35AM EDT


 

Airport Tracker/Info


-or-


 

Live Flight TrackerFlight Track Log ✈ N311AN ✈ 01-Jan-2014 ✈ KISM - KRUQ

Flight Track Log - Related Links

Times and Time Zones

All times are in EST time to prevent confusion due to time zone crossing. See the N311AN flight status page for this flight to view local times or setup timezone preferences in your user account.

Time Position Orientation Groundspeed Altitude Reporting Facility
EST Latitude Longitude Course Direction KTS MPH feet Rate Location/Type
05:43PM 28.3000 -81.4500 360° North 111 128 500  Level Orlando TRACON
05:43PM 28.3167 -81.4500 360° North 111 128 800 780 Climbing Orlando TRACON
05:44PM 28.3500 -81.4667 336° Northwest 131 151 1,600 720 Climbing Orlando TRACON
05:45PM 28.3667 -81.5000 300° West 147 169 2,300 660 Climbing Orlando TRACON
05:46PM 28.4000 -81.5333 319° Northwest 152 175 3,000 780 Climbing Orlando TRACON
05:47PM 28.4167 -81.5667 300° West 135 155 3,900 900 Climbing Orlando TRACON
05:48PM 28.4500 -81.5833 336° Northwest 154 177 4,800 840 Climbing Orlando TRACON
05:49PM 28.5000 -81.5833 360° North 150 173 5,600 720 Climbing Orlando TRACON
05:50PM 28.5333 -81.6000 336° Northwest 150 173 6,300 660 Climbing Orlando TRACON
05:51PM 28.5833 -81.6000 360° North 154 177 7,000 420 Climbing Orlando TRACON
05:52PM 28.6333 -81.6000 360° North 194 223 7,200 360 Climbing Orlando TRACON
05:53PM 28.6833 -81.5833 16° North 188 216 7,800 480 Climbing Orlando TRACON
05:54PM 28.7333 -81.5667 16° North 179 206 8,300 540 Climbing Orlando TRACON
05:55PM 28.7833 -81.5333 30° Northeast 180 207 8,900 600 Climbing Orlando TRACON
05:56PM 28.8167 -81.5167 352° North 183 211 9,500 600 Climbing Orlando TRACON
05:58PM 28.9100 -81.4622 27° Northeast 204 235 10,800 600 Climbing Jacksonville Center
05:59PM 28.9578 -81.4381 24° Northeast 186 214 11,300 600 Climbing Jacksonville Center
06:00PM 29.0056 -81.4183 20° North 178 205 12,000 600 Climbing Jacksonville Center
06:01PM 29.0533 -81.4081 11° North 170 196 12,600 540 Climbing Jacksonville Center
06:02PM 29.1033 -81.4025 North 176 203 13,100 600 Climbing Jacksonville Center
06:03PM 29.1536 -81.4042 358° North 176 203 13,800 600 Climbing Jacksonville Center
06:04PM 29.2036 -81.4058 358° North 176 203 14,300 600 Climbing Jacksonville Center
06:05PM 29.2539 -81.4097 356° North 176 203 15,000 660 Climbing Jacksonville Center
06:06PM 29.3039 -81.4067 North 170 196 15,700 600 Climbing Jacksonville Center
06:07PM 29.3519 -81.4131 353° North 180 207 16,200 540 Climbing Jacksonville Center
06:08PM 29.4042 -81.4147 358° North 175 201 16,800 540 Climbing Jacksonville Center
06:09PM 29.4542 -81.4211 354° North 182 209 17,300 480 Climbing Jacksonville Center
06:10PM 29.5003 -81.4275 353° North 182 209 17,800 420 Climbing Jacksonville Center
06:11PM 29.5506 -81.4339 354° North 182 209 18,200 540 Climbing Jacksonville Center
06:12PM 29.5986 -81.4403 353° North 182 209 18,900 420 Climbing Jacksonville Center
06:13PM 29.6508 -81.4444 356° North 182 209 19,100 120 Climbing Jacksonville Center
06:14PM 29.7053 -81.4556 350° North 182 209 19,200  Climbing Jacksonville Center
06:15PM 29.7636 -81.4619 355° North 192 221 19,200  Level Jacksonville Center
06:16PM 29.8203 -81.4706 352° North 198 228 19,200 -60 Level Jacksonville Center
06:17PM 29.8767 -81.4792 352° North 198 228 19,100 -60 Descending Jacksonville Center
06:18PM 29.9353 -81.4881 353° North 198 228 19,100  Level Jacksonville Center
06:19PM 29.9917 -81.4969 352° North 198 228 19,100 -60 Level Jacksonville Center
06:20PM 30.0503 -81.5056 353° North 198 228 19,000 -60 Descending Jacksonville Center
06:21PM 30.1067 -81.5144 352° North 198 228 19,000  Level Jacksonville Center
06:22PM 30.1653 -81.5231 353° North 198 228 19,000  Level Jacksonville Center
06:23PM 30.2217 -81.5294 354° North 198 228 19,000  Level Jacksonville Center
06:24PM 30.2781 -81.5383 352° North 198 228 19,000  Level Jacksonville Center
06:25PM 30.3344 -81.5472 352° North 198 228 19,100  Climbing Jacksonville Center
06:26PM 30.3931 -81.5536 355° North 198 228 19,100  Level Jacksonville Center
06:27PM 30.4494 -81.5600 354° North 203 234 19,100  Level Jacksonville Center
06:28PM 30.5081 -81.5664 355° North 203 234 19,100  Level Jacksonville Center
06:29PM 30.5667 -81.5728 355° North 203 234 19,100  Level Jacksonville Center
06:30PM 30.6231 -81.5794 354° North 203 234 19,100 -60 Level Jacksonville Center
06:31PM 30.6856 -81.5714 North 203 234 19,000 -60 Descending Jacksonville Center
06:32PM 30.7458 -81.5486 18° North 213 245 19,000  Level Jacksonville Center
06:33PM 30.8061 -81.5261 18° North 220 253 19,000  Level Jacksonville Center
06:34PM 30.8708 -81.5058 15° North 226 260 19,100  Climbing Jacksonville Center
06:35PM 30.9311 -81.4831 18° North 226 260 19,100  Level Jacksonville Center
06:36PM 30.9914 -81.4675 12° North 226 260 19,200  Climbing Jacksonville Center
06:37PM 31.0519 -81.4619 North 221 254 19,200 -60 Level Jacksonville Center
06:38PM 31.1144 -81.4586 North 216 249 19,100 -60 Descending Jacksonville Center
06:39PM 31.1728 -81.4528 North 216 249 19,100 -60 Level Jacksonville Center
06:40PM 31.2356 -81.4444 North 216 249 19,000 -60 Descending Jacksonville Center
06:41PM 31.2958 -81.4264 14° North 216 249 19,000  Level Jacksonville Center
06:42PM 31.3581 -81.3989 21° North 221 254 19,000 -60 Level Jacksonville Center
06:43PM 31.4267 -81.3733 18° North 226 260 18,900 -60 Descending Jacksonville Center
06:44PM 31.4828 -81.3528 17° North 226 260 18,900  Level Jacksonville Center
06:45PM 31.5472 -81.3225 22° Northeast 226 260 18,900  Level Jacksonville Center
06:46PM 31.6072 -81.2922 23° Northeast 234 269 18,900  Level Jacksonville Center
06:47PM 31.6614 -81.2644 24° Northeast 228 262 18,900  Level Jacksonville Center
06:48PM 31.7275 -81.2292 24° Northeast 233 268 18,900  Level Jacksonville Center
06:49PM 31.7817 -81.2014 24° Northeast 233 268 18,900  Level Jacksonville Center
06:50PM 31.8478 -81.1658 25° Northeast 233 268 18,900  Level Jacksonville Center
06:51PM 31.8997 -81.1331 28° Northeast 233 268 18,900  Level Jacksonville Center
06:52PM 31.9619 -81.1050 21° North 233 268 18,900 -60 Level Jacksonville Center
06:53PM 32.0197 -81.0719 26° Northeast 233 268 18,800  Descending Jacksonville Center
06:54PM 32.0778 -81.0414 24° Northeast 233 268 18,900 60 Climbing Jacksonville Center
06:55PM 32.1419 -81.0058 25° Northeast 233 268 19,000  Climbing Jacksonville Center
06:56PM 32.2000 -80.9750 24° Northeast 233 268 18,900 -60 Descending Jacksonville Center
06:57PM 32.2539 -80.9469 24° Northeast 233 268 18,900  Level Jacksonville Center
06:58PM 32.3181 -80.9161 22° Northeast 228 262 18,900  Level Jacksonville Center
06:59PM 32.3719 -80.8831 27° Northeast 228 262 18,900  Level Jacksonville Center
07:00PM 32.4319 -80.8472 27° Northeast 233 268 18,900  Level Jacksonville Center
07:01PM 32.4897 -80.8114 28° Northeast 233 268 18,900  Level Jacksonville Center
07:02PM 32.5475 -80.7781 26° Northeast 238 274 18,900  Level Jacksonville Center
07:03PM 32.6056 -80.7422 27° Northeast 238 274 18,900  Level Jacksonville Center
07:04PM 32.6636 -80.7211 17° North 233 268 18,900 -60 Level Jacksonville Center
07:05PM 32.7200 -80.7272 355° North 215 247 18,800 -60 Descending Jacksonville Center
07:06PM 32.7725 -80.7431 346° North 208 239 18,800  Level Jacksonville Center
07:07PM 32.8250 -80.7592 346° North 196 226 18,800  Level Jacksonville Center
07:08PM 32.8775 -80.7753 346° North 191 220 18,800  Level Jacksonville Center
07:09PM 32.9358 -80.7714 North 197 227 18,800  Level Jacksonville Center
07:10PM 32.9983 -80.7600 North 202 232 18,800  Level Jacksonville Center
07:11PM 33.0564 -80.7414 15° North 213 245 18,800  Level Jacksonville Center
07:12PM 33.1186 -80.7275 11° North 218 251 18,800  Level Jacksonville Center
07:13PM 33.1811 -80.7111 12° North 223 257 18,800  Level Jacksonville Center
07:14PM 33.2411 -80.6922 15° North 223 257 18,800  Level Jacksonville Center
07:15PM 33.3014 -80.6758 13° North 223 257 18,800  Level Jacksonville Center
07:16PM 33.3617 -80.6594 13° North 223 257 18,900 60 Climbing Jacksonville Center
07:17PM 33.4197 -80.6406 15° North 223 257 19,000  Climbing Jacksonville Center
07:18PM 33.4781 -80.6242 13° North 223 257 19,000  Level Jacksonville Center
07:19PM 33.5422 -80.6050 14° North 223 257 19,000  Level Jacksonville Center
07:20PM 33.6025 -80.5858 15° North 223 257 19,000 -120 Level Jacksonville Center
07:21PM 33.6625 -80.5644 17° North 223 257 18,800 -240 Descending Jacksonville Center
07:22PM 33.7247 -80.5428 16° North 223 257 18,600 -240 Descending Jacksonville Center
07:23PM 33.7828 -80.5214 17° North 223 257 18,400 -300 Descending Jacksonville Center
07:24PM 33.8431 -80.5047 13° North 223 257 18,100 -300 Descending Jacksonville Center
07:25PM 33.8989 -80.4831 18° North 218 251 17,900 -60 Descending Jacksonville Center
07:26PM 33.9569 -80.4639 15° North 218 251 18,000 -120 Climbing Jacksonville Center
07:27PM 34.0150 -80.4397 19° North 218 251 17,700 -420 Descending Jacksonville Center
07:28PM 34.0753 -80.4231 13° North 218 251 17,200 -420 Descending Jacksonville Center
07:29PM 34.1331 -80.4014 17° North 218 251 16,900 -420 Descending Jacksonville Center
07:30PM 34.1914 -80.3872 11° North 218 251 16,400 -420 Descending Jacksonville Center
07:31PM 34.2536 -80.3678 14° North 218 251 16,100 -300 Descending Jacksonville Center
07:32PM 34.3117 -80.3561 North 218 251 15,800 -300 Descending Jacksonville Center
07:33PM 34.3697 -80.3367 15° North 218 251 15,600 -300 Descending Jacksonville Center
07:34PM 34.4256 -80.3200 14° North 218 251 15,300 -360 Descending Jacksonville Center
07:36PM 34.5158 -80.3003 10° North 204 235 14,800 -360 Descending Atlanta Center
07:37PM 34.5703 -80.3028 358° North 195 224 14,500 -420 Descending Atlanta Center
07:38PM 34.6244 -80.3081 355° North 198 228 14,000 -240 Descending Atlanta Center
07:39PM 34.6831 -80.3106 358° North 194 223 14,000  Level Atlanta Center
07:40PM 34.7378 -80.3231 349° North 175 201 14,000  Level Atlanta Center
07:41PM 34.7714 -80.3317 348° North 175 201 14,000  Level Atlanta Center
07:42PM 34.8261 -80.3469 347° North 176 203 14,000 -60 Level Atlanta Center
07:43PM 34.8681 -80.3553 351° North 181 208 13,900 -180 Descending Atlanta Center
07:44PM 34.9208 -80.3733 344° North 185 213 13,700 -420 Descending Atlanta Center
07:45PM 34.9711 -80.3861 348° North 186 214 13,100 -420 Descending Atlanta Center
07:46PM 35.0239 -80.4042 344° North 187 215 12,900 -300 Descending Atlanta Center
07:47PM 35.0722 -80.4147 350° North 185 213 12,600 -360 Descending Atlanta Center
07:48PM 35.1186 -80.4306 344° North 185 213 12,300 -420 Descending Atlanta Center
07:49PM 35.1669 -80.4461 345° North 181 208 11,900 -540 Descending Atlanta Center
07:50PM 35.2236 -80.4514 356° North 191 220 11,300 -660 Descending Atlanta Center
07:51PM 35.2781 -80.4567 355° North 190 219 10,500 -720 Descending Atlanta Center
07:52PM 35.3322 -80.4619 355° North 191 220 9,800 -960 Descending Atlanta Center
07:53PM 35.3867 -80.4697 353° North 200 230 8,600 -1,380 Descending Atlanta Center
07:54PM 35.4456 -80.4825 350° North 201 231 7,100 -1,920 Descending Atlanta Center
07:55PM 35.5044 -80.4978 348° North 208 239 4,800 -1,980 Descending Atlanta Center
07:56PM 35.5531 -80.5214 338° Northwest 192 221 3,100 -1,680 Descending Atlanta Center